Blue Image — 3EXO5 — position and weather

sailwx.info

Track history (hours):
 
Tides and Currents Weather Stations Pressure Air Temp Water Temp Dewpoint Dewpoint Depression Visibility Wind Speed Wind Dir Waves Ship Positions

Blue Image

Last reported at 2015-Aug-04 02:33 UTC. Time now 2015-Aug-04 03:22 UTC.
Position N 37°15' E 003°38'.

Length 160 m; draft 10.4 m.

Type: Cargo ship. MMSI: 351960000.

Date/timePositionNaut miles runAvg speedWind from/ knotsBaromVisibWave heightAir tempDewpointWater temp
2015-Aug-04 02:33N 37°15' E 003°38'1311.9
2015-Aug-04 01:30N 37°13' E 003°23'1211.8
2015-Aug-04 00:30N 37°12' E 003°08'1111.6
2015-Aug-03 23:33N 37°10' E 002°54'2311.6
2015-Aug-03 21:33N 37°08' E 002°26'1211.4
2015-Aug-03 20:28N 37°06' E 002°10'1011.1
2015-Aug-03 19:33N 37°04' E 001°58'1111.4
2015-Aug-03 18:33N 37°01' E 001°44'1111.4
2015-Aug-03 17:33N 36°58' E 001°30'1211.6
2015-Aug-03 16:33N 36°54' E 001°16'1212.1
2015-Aug-03 15:33N 36°51' E 001°02'1212.1
2015-Aug-03 14:33N 36°47' E 000°48'1211.8
2015-Aug-03 13:33N 36°43' E 000°34'1211.8
2015-Aug-03 12:33N 36°40' E 000°20'1211.7
2015-Aug-03 11:33N 36°36' E 000°06'1211.9
2015-Aug-03 10:33N 36°33' W 000°09'1212.1
2015-Aug-03 09:33N 36°29' W 000°23'1312.2
2015-Aug-03 08:30N 36°26' W 000°38'1112.0
2015-Aug-03 07:34N 36°23' W 000°52'2311.2
2015-Aug-03 05:28N 36°20' W 001°21'1111.3
2015-Aug-03 04:30N 36°19' W 001°34'3411.0
2015-Aug-03 01:23N 36°17' W 002°17'30111.5
2015-Aug-01 23:17N 34°29' W 008°01'39210.9
2015-Jul-31 11:26N 29°53' W 013°29'2511.6
2015-Jul-31 09:17N 29°36' W 013°50'911.6
2015-Jul-31 08:32N 29°29' W 013°57'1111.3
2015-Jul-31 07:32N 29°22' W 014°07'1211.3
2015-Jul-31 06:30N 29°13' W 014°16'1111.3
2015-Jul-31 05:32N 29°05' W 014°24'1111.4
2015-Jul-31 04:33N 28°56' W 014°32'1111.4
2015-Jul-31 03:33N 28°48' W 014°41'1111.0
2015-Jul-31 02:33N 28°40' W 014°49'1111.1
2015-Jul-31 01:33N 28°32' W 014°58'1111.5
2015-Jul-31 00:33N 28°23' W 015°07'1211.7
2015-Jul-30 23:33N 28°15' W 015°16'1110.7
2015-Jul-30 22:33N 28°07' W 015°24'0 0.3
2015-Jul-30 21:31N 28°07' W 015°24'0 0.0
2015-Jul-30 20:31N 28°07' W 015°24'0 0.0
2015-Jul-30 19:19N 28°07' W 015°24'0 0.0
2015-Jul-30 18:31N 28°07' W 015°24'0 0.0
2015-Jul-30 17:29N 28°07' W 015°24'0 0.0
2015-Jul-30 16:32N 28°07' W 015°24'0 0.0
2015-Jul-30 15:32N 28°07' W 015°24'0 0.3
2015-Jul-30 14:33N 28°07' W 015°24'3 3.1
2015-Jul-30 13:33N 28°05' W 015°21'1110.5
2015-Jul-30 12:34N 27°55' W 015°17'1010.1
2015-Jul-30 11:33N 27°45' W 015°18'10 9.4
2015-Jul-30 10:33N 27°36' W 015°17'  
2015-Jul-25 16:06N 09°19' W 013°58'611.6
2015-Jul-25 15:33N 09°20' W 013°52'10 9.6
2015-Jul-25 14:33N 09°25' W 013°44'6 5.8
2015-Jul-25 13:33N 09°31' W 013°43'0 0.2
2015-Jul-25 12:33N 09°31' W 013°43'0 0.0
2015-Jul-25 11:33N 09°31' W 013°43'0 0.0
2015-Jul-25 10:30N 09°31' W 013°43'0 0.0
2015-Jul-25 09:21N 09°31' W 013°43'0 0.0
2015-Jul-25 08:33N 09°31' W 013°43'0 0.0
2015-Jul-25 07:33N 09°31' W 013°43'0 0.0
2015-Jul-25 06:33N 09°31' W 013°43'0 0.0
2015-Jul-25 05:33N 09°31' W 013°43'0 0.0
2015-Jul-25 04:30N 09°31' W 013°43'0 0.0
2015-Jul-25 03:33N 09°31' W 013°43'  
Track history (hours):
 
Tides and Currents Weather Stations Pressure Air Temp Water Temp Dewpoint Dewpoint Depression Visibility Wind Speed Wind Dir Waves Ship Positions

Blue Image

Last reported at 2015-Aug-04 02:33 UTC. Time now 2015-Aug-04 03:22 UTC.
Position N 37°15' E 003°38'.

Length 160 m; draft 10.4 m.

Type: Cargo ship. MMSI: 351960000.

Date/timePositionNaut miles runAvg speedWind from/ knotsBaromVisibWave heightAir tempDewpointWater temp
2015-Aug-04 02:33N 37°15' E 003°38'1311.9
2015-Aug-04 01:30N 37°13' E 003°23'1211.8
2015-Aug-04 00:30N 37°12' E 003°08'1111.6
2015-Aug-03 23:33N 37°10' E 002°54'2311.6
2015-Aug-03 21:33N 37°08' E 002°26'1211.4
2015-Aug-03 20:28N 37°06' E 002°10'1011.1
2015-Aug-03 19:33N 37°04' E 001°58'1111.4
2015-Aug-03 18:33N 37°01' E 001°44'1111.4
2015-Aug-03 17:33N 36°58' E 001°30'1211.6
2015-Aug-03 16:33N 36°54' E 001°16'1212.1
2015-Aug-03 15:33N 36°51' E 001°02'1212.1
2015-Aug-03 14:33N 36°47' E 000°48'1211.8
2015-Aug-03 13:33N 36°43' E 000°34'1211.8
2015-Aug-03 12:33N 36°40' E 000°20'1211.7
2015-Aug-03 11:33N 36°36' E 000°06'1211.9
2015-Aug-03 10:33N 36°33' W 000°09'1212.1
2015-Aug-03 09:33N 36°29' W 000°23'1312.2
2015-Aug-03 08:30N 36°26' W 000°38'1112.0
2015-Aug-03 07:34N 36°23' W 000°52'2311.2
2015-Aug-03 05:28N 36°20' W 001°21'1111.3
2015-Aug-03 04:30N 36°19' W 001°34'3411.0
2015-Aug-03 01:23N 36°17' W 002°17'30111.5
2015-Aug-01 23:17N 34°29' W 008°01'39210.9
2015-Jul-31 11:26N 29°53' W 013°29'2511.6
2015-Jul-31 09:17N 29°36' W 013°50'911.6
2015-Jul-31 08:32N 29°29' W 013°57'1111.3
2015-Jul-31 07:32N 29°22' W 014°07'1211.3
2015-Jul-31 06:30N 29°13' W 014°16'1111.3
2015-Jul-31 05:32N 29°05' W 014°24'1111.4
2015-Jul-31 04:33N 28°56' W 014°32'1111.4
2015-Jul-31 03:33N 28°48' W 014°41'1111.0
2015-Jul-31 02:33N 28°40' W 014°49'1111.1
2015-Jul-31 01:33N 28°32' W 014°58'1111.5
2015-Jul-31 00:33N 28°23' W 015°07'1211.7
2015-Jul-30 23:33N 28°15' W 015°16'1110.7
2015-Jul-30 22:33N 28°07' W 015°24'0 0.3
2015-Jul-30 21:31N 28°07' W 015°24'0 0.0
2015-Jul-30 20:31N 28°07' W 015°24'0 0.0
2015-Jul-30 19:19N 28°07' W 015°24'0 0.0
2015-Jul-30 18:31N 28°07' W 015°24'0 0.0
2015-Jul-30 17:29N 28°07' W 015°24'0 0.0
2015-Jul-30 16:32N 28°07' W 015°24'0 0.0
2015-Jul-30 15:32N 28°07' W 015°24'0 0.3
2015-Jul-30 14:33N 28°07' W 015°24'3 3.1
2015-Jul-30 13:33N 28°05' W 015°21'1110.5
2015-Jul-30 12:34N 27°55' W 015°17'1010.1
2015-Jul-30 11:33N 27°45' W 015°18'10 9.4
2015-Jul-30 10:33N 27°36' W 015°17'  
2015-Jul-25 16:06N 09°19' W 013°58'611.6
2015-Jul-25 15:33N 09°20' W 013°52'10 9.6
2015-Jul-25 14:33N 09°25' W 013°44'6 5.8
2015-Jul-25 13:33N 09°31' W 013°43'0 0.2
2015-Jul-25 12:33N 09°31' W 013°43'0 0.0
2015-Jul-25 11:33N 09°31' W 013°43'0 0.0
2015-Jul-25 10:30N 09°31' W 013°43'0 0.0
2015-Jul-25 09:21N 09°31' W 013°43'0 0.0
2015-Jul-25 08:33N 09°31' W 013°43'0 0.0
2015-Jul-25 07:33N 09°31' W 013°43'0 0.0
2015-Jul-25 06:33N 09°31' W 013°43'0 0.0
2015-Jul-25 05:33N 09°31' W 013°43'0 0.0
2015-Jul-25 04:30N 09°31' W 013°43'0 0.0
2015-Jul-25 03:33N 09°31' W 013°43'  

Dump ship's entire track history